Time;durP1;ratioP1;P1;durP2;ratioP2;P2;SDS_P1;SDS_P2;PMS_P1;PMS_P2;Temp;Humidity;BMP_temperature;BMP_pressure;BME280_temperature;BME280_humidity;BME280_pressure;Samples;Min_cycle;Max_cycle;Signal;HPM_P1;HPM_P2
2022/06/23 00:01:57;;;;;;;4.65;2.75;;;14.70;99.90;;;;;;5079456;28;20498;-79
2022/06/23 00:04:29;;;;;;;4.82;2.92;;;14.60;99.90;;;;;;5079772;28;20266;-81
2022/06/23 00:07:02;;;;;;;5.40;2.85;;;14.60;99.90;;;;;;5079776;28;20167;-80
2022/06/23 00:09:32;;;;;;;5.95;2.70;;;14.20;99.90;;;;;;5078009;28;20179;-81
2022/06/23 00:11:58;;;;;;;14.95;4.32;;;14.40;99.90;;;;;;5078361;28;20167;-80
2022/06/23 00:14:26;;;;;;;5.00;3.10;;;14.20;99.90;;;;;;5079302;28;20206;-81
2022/06/23 00:16:51;;;;;;;7.75;3.15;;;14.20;99.90;;;;;;5078155;28;20227;-81
2022/06/23 00:19:17;;;;;;;4.15;2.80;;;;;;;;;;5077799;28;20705;-81
2022/06/23 00:21:47;;;;;;;4.63;2.83;;;14.10;99.90;;;;;;5080086;28;20184;-81
2022/06/23 00:24:19;;;;;;;4.75;2.97;;;14.40;99.90;;;;;;5079402;28;20171;-81
2022/06/23 00:26:45;;;;;;;8.25;3.80;;;14.40;99.90;;;;;;5079654;28;20175;-81
2022/06/23 00:29:15;;;;;;;4.53;3.10;;;14.30;99.90;;;;;;5077940;28;20232;-84
2022/06/23 00:31:44;;;;;;;5.65;2.95;;;14.30;99.90;;;;;;5078260;28;20229;-81
2022/06/23 00:34:35;;;;;;;5.93;3.33;;;14.20;99.90;;;;;;5079305;28;20199;-81
2022/06/23 00:37:06;;;;;;;6.47;3.83;;;14.20;99.90;;;;;;5079366;28;20171;-81
2022/06/23 00:40:05;;;;;;;6.03;3.50;;;14.50;99.90;;;;;;5078789;28;20550;-81
2022/06/23 00:42:49;;;;;;;4.97;2.95;;;14.30;99.90;;;;;;5067697;28;20652;-81
2022/06/23 00:45:51;;;;;;;7.70;4.00;;;14.00;99.90;;;;;;5078907;28;20163;-82
2022/06/23 00:48:25;;;;;;;5.57;3.33;;;13.50;99.90;;;;;;5076963;28;20669;-80
2022/06/23 00:51:08;;;;;;;5.38;3.53;;;13.90;99.90;;;;;;5076204;28;20170;-81
2022/06/23 00:53:55;;;;;;;4.93;3.00;;;14.20;99.90;;;;;;5075913;28;20698;-81
2022/06/23 00:56:43;;;;;;;3.42;2.47;;;13.80;99.90;;;;;;5075741;28;20179;-81
2022/06/23 00:59:18;;;;;;;10.00;3.33;;;14.10;99.90;;;;;;5075943;28;20190;-81
2022/06/23 01:02:02;;;;;;;5.50;3.13;;;13.70;99.90;;;;;;5075804;28;20175;-81
2022/06/23 01:04:36;;;;;;;6.05;3.10;;;13.90;99.90;;;;;;5075777;28;20648;-81
2022/06/23 01:07:26;;;;;;;5.20;2.90;;;13.40;99.90;;;;;;5075867;28;20264;-80
2022/06/23 01:10:04;;;;;;;4.13;3.10;;;15.40;99.90;;;;;;5076164;28;20186;-80
2022/06/23 01:12:36;;;;;;;5.38;2.83;;;14.00;99.90;;;;;;5076010;28;20170;-80
2022/06/23 01:15:15;;;;;;;6.65;3.15;;;13.40;99.90;;;;;;5075953;28;20192;-81
2022/06/23 01:17:54;;;;;;;4.45;2.88;;;13.30;99.90;;;;;;5075497;28;20229;-81
2022/06/23 01:20:31;;;;;;;5.43;2.95;;;13.70;99.90;;;;;;5075880;28;20175;-82
2022/06/23 01:23:12;;;;;;;6.00;3.35;;;13.20;99.90;;;;;;5075570;28;20163;-81
2022/06/23 01:26:03;;;;;;;4.40;3.08;;;13.40;99.90;;;;;;5075342;28;20224;-80
2022/06/23 01:28:35;;;;;;;5.65;3.10;;;13.50;99.90;;;;;;5075355;28;20163;-81
2022/06/23 01:31:26;;;;;;;5.97;3.45;;;13.60;99.90;;;;;;5075060;28;20251;-80
2022/06/23 01:33:57;;;;;;;6.18;3.00;;;13.20;99.90;;;;;;5074131;28;20620;-81
2022/06/23 01:36:32;;;;;;;4.50;3.03;;;13.50;99.90;;;;;;5075007;28;20223;-81
2022/06/23 01:39:19;;;;;;;3.88;2.80;;;13.40;99.90;;;;;;5074999;28;20194;-81
2022/06/23 01:41:53;;;;;;;5.78;3.05;;;13.30;99.90;;;;;;5073647;28;20540;-81
2022/06/23 01:44:40;;;;;;;5.03;3.20;;;13.60;99.90;;;;;;5073769;28;20183;-81
2022/06/23 01:47:35;;;;;;;6.28;3.10;;;13.10;99.90;;;;;;5075405;28;20185;-81
2022/06/23 01:50:41;;;;;;;4.30;3.00;;;13.00;99.90;;;;;;5073839;28;20175;-81
2022/06/23 01:53:13;;;;;;;4.72;3.20;;;13.40;99.90;;;;;;5069752;28;20198;-81
2022/06/23 01:55:55;;;;;;;6.07;2.65;;;13.50;99.90;;;;;;5074739;28;20384;-81
2022/06/23 01:58:23;;;;;;;4.72;3.20;;;13.30;99.90;;;;;;5074969;28;20184;-81
2022/06/23 02:00:53;;;;;;;6.10;3.47;;;12.90;99.90;;;;;;5073318;28;20510;-81
2022/06/23 02:03:38;;;;;;;5.53;2.88;;;12.90;99.90;;;;;;5073630;28;20163;-80
2022/06/23 02:06:26;;;;;;;3.80;2.53;;;13.20;99.90;;;;;;5073680;28;20565;-81
2022/06/23 02:09:04;;;;;;;3.63;2.70;;;13.40;99.90;;;;;;5074373;28;20197;-81
2022/06/23 02:11:33;;;;;;;3.83;3.03;;;13.10;99.90;;;;;;5074109;28;20212;-81
2022/06/23 02:14:26;;;;;;;4.40;2.75;;;13.00;99.90;;;;;;5074060;28;20547;-81
2022/06/23 02:17:28;;;;;;;4.40;2.75;;;12.90;99.90;;;;;;5072943;28;20227;-81
2022/06/23 02:19:56;;;;;;;4.45;2.72;;;12.90;99.90;;;;;;5074323;28;20194;-81
2022/06/23 02:22:34;;;;;;;4.63;3.05;;;12.80;99.90;;;;;;5074305;28;20171;-81
2022/06/23 02:25:22;;;;;;;4.72;2.88;;;12.90;99.90;;;;;;5072904;28;20186;-81
2022/06/23 02:28:03;;;;;;;6.80;2.63;;;13.20;99.90;;;;;;5072595;28;20186;-80
2022/06/23 02:30:34;;;;;;;5.70;2.92;;;12.70;99.90;;;;;;5072725;28;20190;-81
2022/06/23 02:33:00;;;;;;;3.50;2.38;;;12.90;99.90;;;;;;5073909;28;20155;-81
2022/06/23 02:35:45;;;;;;;5.15;3.70;;;13.10;99.90;;;;;;5073900;28;20558;-81
2022/06/23 02:38:30;;;;;;;4.85;2.88;;;12.70;99.90;;;;;;5074297;28;20160;-81
2022/06/23 02:41:03;;;;;;;4.30;3.10;;;12.60;99.90;;;;;;5073948;28;20198;-81
2022/06/23 02:43:38;;;;;;;5.80;3.40;;;12.50;99.90;;;;;;5073868;28;20167;-81
2022/06/23 02:46:04;;;;;;;5.40;3.53;;;12.70;99.90;;;;;;5073998;28;20631;-81
2022/06/23 02:49:07;;;;;;;5.38;2.85;;;13.00;99.90;;;;;;5072192;28;20183;-81
2022/06/23 02:51:57;;;;;;;5.00;2.58;;;12.60;99.90;;;;;;5072296;28;20182;-81
2022/06/23 02:55:00;;;;;;;6.00;3.30;;;12.30;99.90;;;;;;5074085;28;20187;-81
2022/06/23 02:57:46;;;;;;;5.15;3.25;;;12.80;99.90;;;;;;5072334;28;20527;-80
2022/06/23 03:00:40;;;;;;;5.20;3.22;;;12.70;99.90;;;;;;5072355;28;20225;-80
2022/06/23 03:03:18;;;;;;;6.07;3.17;;;13.10;99.90;;;;;;5073609;28;20180;-81
2022/06/23 03:05:51;;;;;;;6.82;3.55;;;12.80;99.90;;;;;;5066775;28;20179;-82
2022/06/23 03:08:35;;;;;;;4.20;3.08;;;12.80;99.90;;;;;;5072233;28;20623;-83
2022/06/23 03:11:16;;;;;;;4.38;3.33;;;12.70;99.90;;;;;;5068247;28;20175;-83
2022/06/23 03:13:53;;;;;;;4.18;3.13;;;12.80;99.90;;;;;;5070053;28;20179;-86
2022/06/23 03:16:30;;;;;;;6.57;3.63;;;12.80;99.90;;;;;;5071119;28;20703;-83
2022/06/23 03:19:15;;;;;;;3.83;2.65;;;12.80;99.90;;;;;;5071349;28;20175;-84
2022/06/23 03:21:52;;;;;;;5.50;3.42;;;12.80;99.90;;;;;;5069788;28;20232;-84
2022/06/23 03:24:59;;;;;;;5.45;3.20;;;12.80;99.90;;;;;;5071544;28;20178;-83
2022/06/23 03:27:55;;;;;;;6.75;4.00;;;12.80;99.90;;;;;;5065460;28;20187;-84
2022/06/23 03:30:53;;;;;;;6.40;3.45;;;12.80;99.90;;;;;;5062904;28;20244;-83
2022/06/23 03:33:19;;;;;;;5.60;3.05;;;12.80;99.90;;;;;;5064548;28;20257;-87
2022/06/23 03:36:19;;;;;;;4.20;3.03;;;12.90;99.90;;;;;;5070515;28;20274;-83
2022/06/23 03:41:59;;;;;;;3.88;3.03;;;12.90;99.90;;;;;;5071578;28;20198;-87
2022/06/23 03:44:34;;;;;;;4.30;3.03;;;12.90;99.90;;;;;;5069647;28;20187;-88
2022/06/23 03:47:12;;;;;;;7.78;3.00;;;13.00;99.90;;;;;;5071633;28;20186;-91
2022/06/23 03:49:46;;;;;;;5.57;3.10;;;13.00;99.90;;;;;;5070473;28;20178;-90
2022/06/23 03:52:34;;;;;;;6.45;2.95;;;13.10;99.90;;;;;;5071762;28;20265;-90
2022/06/23 03:55:08;;;;;;;5.10;3.20;;;13.10;99.90;;;;;;5071136;28;20237;-90
2022/06/23 03:57:44;;;;;;;5.40;3.55;;;13.20;99.90;;;;;;5070349;28;20178;-91
2022/06/23 04:00:25;;;;;;;5.32;3.55;;;13.30;99.90;;;;;;5070326;28;20182;-90
2022/06/23 04:03:14;;;;;;;7.07;2.97;;;13.40;99.90;;;;;;5070083;28;20575;-91
2022/06/23 04:06:18;;;;;;;5.18;3.25;;;13.50;99.90;;;;;;5063774;28;20202;-90
2022/06/23 04:08:58;;;;;;;5.75;3.92;;;13.60;99.90;;;;;;5044875;28;20194;-90
2022/06/23 04:11:43;;;;;;;7.00;2.97;;;13.80;99.90;;;;;;5071669;28;20198;-89
2022/06/23 04:14:13;;;;;;;6.75;3.25;;;14.00;99.90;;;;;;5069648;28;20270;-88
2022/06/23 04:16:40;;;;;;;6.20;3.60;;;14.10;99.90;;;;;;5069883;28;20227;-90
2022/06/23 04:19:26;;;;;;;4.78;3.10;;;14.40;99.90;;;;;;5071896;28;20655;-90
2022/06/23 04:22:04;;;;;;;4.47;2.95;;;14.70;99.90;;;;;;5071730;28;20233;-91
2022/06/23 04:24:29;;;;;;;5.70;3.67;;;14.80;99.90;;;;;;5073163;28;20662;-89
2022/06/23 04:27:04;;;;;;;5.90;3.13;;;14.90;99.90;;;;;;5057423;28;20188;-89
2022/06/23 04:29:36;;;;;;;5.28;2.70;;;15.10;99.90;;;;;;5055443;28;20689;-89
2022/06/23 04:32:18;;;;;;;3.80;2.90;;;15.20;99.90;;;;;;5055928;28;20195;-89
2022/06/23 04:35:06;;;;;;;5.03;2.28;;;15.30;99.90;;;;;;5071414;28;20325;-89
2022/06/23 04:37:58;;;;;;;2.75;2.33;;;15.40;99.90;;;;;;5074768;28;20254;-89
2022/06/23 04:40:42;;;;;;;8.00;3.45;;;15.50;99.90;;;;;;5061406;28;20175;-89
2022/06/23 04:43:26;;;;;;;4.53;3.30;;;15.60;99.90;;;;;;5056455;28;20242;-89
2022/06/23 04:46:07;;;;;;;3.60;2.75;;;15.70;99.90;;;;;;5073805;28;20175;-88
2022/06/23 04:48:38;;;;;;;3.60;2.75;;;15.80;99.90;;;;;;5097896;28;20171;-87
2022/06/23 04:51:23;;;;;;;4.28;3.08;;;15.90;99.90;;;;;;5098632;28;20174;-89
2022/06/23 04:54:12;;;;;;;4.65;3.30;;;16.00;99.90;;;;;;5095753;28;20191;-88
2022/06/23 04:56:50;;;;;;;4.72;2.13;;;16.10;99.90;;;;;;5087875;28;20179;-87
2022/06/23 04:59:29;;;;;;;5.75;3.45;;;16.10;99.90;;;;;;5086333;28;20179;-88
2022/06/23 05:01:59;;;;;;;3.28;2.88;;;16.20;99.90;;;;;;5079637;28;20178;-87
2022/06/23 05:04:38;;;;;;;4.93;3.05;;;16.20;99.90;;;;;;5078564;28;20183;-84
2022/06/23 05:07:11;;;;;;;4.15;3.03;;;16.30;99.90;;;;;;5073139;28;20180;-84
2022/06/23 05:09:40;;;;;;;5.10;2.83;;;16.30;99.90;;;;;;5075286;28;20156;-84
2022/06/23 05:12:27;;;;;;;4.53;2.90;;;16.30;99.90;;;;;;5074476;28;20278;-85
2022/06/23 05:15:02;;;;;;;3.35;2.88;;;16.40;99.90;;;;;;5075462;28;20203;-84
2022/06/23 05:17:32;;;;;;;4.72;3.05;;;16.40;99.90;;;;;;5076126;28;20238;-85
2022/06/23 05:20:02;;;;;;;7.43;2.70;;;16.50;99.90;;;;;;5075406;28;20182;-86
2022/06/23 05:22:35;;;;;;;3.70;2.35;;;16.50;99.90;;;;;;5075642;28;20174;-85
2022/06/23 05:25:20;;;;;;;4.10;2.63;;;16.50;99.90;;;;;;5075233;28;20175;-85
2022/06/23 05:27:48;;;;;;;6.55;2.70;;;16.50;99.90;;;;;;5074195;28;20183;-85
2022/06/23 05:30:35;;;;;;;5.20;2.53;;;16.60;99.90;;;;;;5084385;28;20171;-84
2022/06/23 05:33:41;;;;;;;4.65;2.65;;;16.60;99.90;;;;;;5084273;28;20160;-84
2022/06/23 05:36:15;;;;;;;3.20;2.33;;;16.60;99.90;;;;;;5018518;28;20209;-86
2022/06/23 05:38:48;;;;;;;6.60;2.08;;;16.60;99.90;;;;;;5072207;28;20222;-85
2022/06/23 05:41:23;;;;;;;2.33;2.13;;;16.60;99.90;;;;;;5077390;28;20213;-85
2022/06/23 05:43:50;;;;;;;3.55;2.53;;;16.70;99.90;;;;;;5078039;28;20248;-86
2022/06/23 05:46:21;;;;;;;4.32;1.80;;;16.90;99.90;;;;;;5078058;28;20178;-86
2022/06/23 05:48:57;;;;;;;2.05;1.90;;;17.00;99.90;;;;;;5077614;28;20176;-86
2022/06/23 05:51:42;;;;;;;4.53;2.38;;;17.20;99.90;;;;;;5086134;28;20159;-87
2022/06/23 05:54:16;;;;;;;4.55;2.25;;;17.60;99.90;;;;;;5083053;28;20193;-86
2022/06/23 05:57:05;;;;;;;3.72;2.65;;;17.90;99.90;;;;;;5079886;28;20167;-87
2022/06/23 05:59:49;;;;;;;4.53;3.22;;;18.10;99.90;;;;;;5075612;28;20216;-86
2022/06/23 06:02:37;;;;;;;2.13;1.58;;;18.30;99.90;;;;;;5075705;28;20163;-87
2022/06/23 06:05:03;;;;;;;3.40;2.00;;;18.60;99.90;;;;;;5074602;28;20189;-87
2022/06/23 06:07:36;;;;;;;2.08;1.60;;;18.90;99.90;;;;;;5074510;28;20221;-87
2022/06/23 06:10:05;;;;;;;2.00;1.52;;;19.10;99.90;;;;;;5074982;28;20171;-87
2022/06/23 06:12:38;;;;;;;2.92;1.70;;;19.40;99.90;;;;;;5074582;28;20171;-86
2022/06/23 06:15:07;;;;;;;2.78;2.00;;;19.60;99.90;;;;;;5074724;28;20237;-87
2022/06/23 06:17:34;;;;;;;5.05;2.45;;;19.60;99.90;;;;;;5074465;28;20230;-88
2022/06/23 06:20:05;;;;;;;4.00;2.20;;;19.60;99.90;;;;;;5056490;28;20203;-87
2022/06/23 06:22:56;;;;;;;4.03;2.60;;;19.50;99.90;;;;;;5074971;28;20250;-87
2022/06/23 06:25:28;;;;;;;4.30;1.95;;;19.40;99.90;;;;;;5072930;28;20189;-87
2022/06/23 06:27:55;;;;;;;2.35;1.95;;;19.40;99.90;;;;;;5073017;28;20198;-88
2022/06/23 06:30:36;;;;;;;10.27;2.10;;;19.30;99.90;;;;;;5072924;28;20179;-88
2022/06/23 06:33:04;;;;;;;3.53;2.65;;;19.40;99.90;;;;;;5074709;28;20205;-87
2022/06/23 06:35:37;;;;;;;2.10;1.90;;;19.60;99.90;;;;;;5074352;28;20230;-87
2022/06/23 06:38:06;;;;;;;6.00;3.03;;;19.70;99.90;;;;;;5074124;28;20175;-87
2022/06/23 06:40:34;;;;;;;2.90;2.38;;;20.10;99.90;;;;;;5074767;28;20243;-90
2022/06/23 06:43:04;;;;;;;3.88;2.08;;;20.10;99.90;;;;;;5073226;28;20654;-88
2022/06/23 06:45:34;;;;;;;5.35;2.28;;;20.30;99.90;;;;;;5072784;28;20190;-88
2022/06/23 06:48:01;;;;;;;3.55;2.38;;;20.50;99.90;;;;;;5072144;28;20178;-89
2022/06/23 06:50:42;;;;;;;2.95;1.88;;;20.50;99.90;;;;;;5072350;28;20682;-89
2022/06/23 06:53:38;;;;;;;2.10;1.50;;;20.60;99.90;;;;;;5072296;28;20519;-88
2022/06/23 06:56:22;;;;;;;3.67;1.70;;;20.80;99.90;;;;;;5073657;28;20235;-89
2022/06/23 06:59:14;;;;;;;2.08;1.52;;;20.90;99.90;;;;;;5074040;28;20212;-88
2022/06/23 07:01:43;;;;;;;1.88;1.73;;;21.00;99.90;;;;;;5073519;28;20213;-89
2022/06/23 07:04:16;;;;;;;2.47;1.70;;;21.20;99.90;;;;;;5056096;28;20577;-88
2022/06/23 07:06:52;;;;;;;3.42;2.05;;;21.20;99.90;;;;;;5073867;28;20655;-88
2022/06/23 07:09:34;;;;;;;2.95;1.67;;;21.20;99.90;;;;;;5073420;28;20194;-90
2022/06/23 07:12:18;;;;;;;1.13;1.00;;;21.00;99.90;;;;;;5073558;28;20175;-88
2022/06/23 07:15:22;;;;;;;2.13;1.35;;;20.80;99.90;;;;;;5073541;28;20199;-89
2022/06/23 07:17:56;;;;;;;1.48;1.10;;;20.80;99.90;;;;;;5073261;28;20296;-88
2022/06/23 07:20:52;;;;;;;2.47;1.40;;;21.10;99.90;;;;;;5073447;28;20159;-89
2022/06/23 07:23:24;;;;;;;2.55;1.88;;;21.10;99.90;;;;;;5064354;28;20187;-89
2022/06/23 07:25:54;;;;;;;2.20;1.40;;;21.40;99.90;;;;;;5073616;28;20216;-89
2022/06/23 07:28:30;;;;;;;2.03;1.65;;;21.50;99.90;;;;;;5073366;28;20175;-89
2022/06/23 07:31:01;;;;;;;2.20;1.38;;;21.70;99.90;;;;;;5074301;28;20159;-89
2022/06/23 07:33:47;;;;;;;0.90;0.82;;;21.90;99.90;;;;;;5072276;28;20237;-88
2022/06/23 07:36:34;;;;;;;5.93;1.73;;;21.80;99.90;;;;;;5073530;28;20195;-89
2022/06/23 07:39:09;;;;;;;1.55;1.25;;;21.70;99.90;;;;;;5073349;28;20202;-89
2022/06/23 07:41:42;;;;;;;1.17;0.98;;;21.80;97.60;;;;;;5073384;28;20178;-89
2022/06/23 07:44:20;;;;;;;1.85;1.45;;;21.90;95.60;;;;;;5073199;28;20182;-90
2022/06/23 07:46:46;;;;;;;1.13;1.00;;;22.20;96.70;;;;;;5075109;28;20174;-88
2022/06/23 07:49:13;;;;;;;1.92;1.05;;;22.30;95.50;;;;;;5075497;28;20190;-90
2022/06/23 07:51:41;;;;;;;1.48;1.00;;;22.30;95.30;;;;;;5073479;28;20214;-88
2022/06/23 07:54:17;;;;;;;1.48;1.23;;;22.30;95.60;;;;;;5073176;28;20220;-88
2022/06/23 07:56:43;;;;;;;1.80;1.00;;;22.40;95.50;;;;;;5072088;28;20628;-89
2022/06/23 07:59:12;;;;;;;4.00;2.28;;;22.40;94.50;;;;;;5075863;28;20278;-88
2022/06/23 08:02:02;;;;;;;3.08;1.92;;;22.40;95.70;;;;;;5077123;28;20175;-91
2022/06/23 08:04:46;;;;;;;1.30;1.20;;;22.50;96.70;;;;;;5076527;28;20190;-89
2022/06/23 08:07:13;;;;;;;1.60;1.50;;;22.60;97.20;;;;;;5077604;28;20175;-88
2022/06/23 08:09:49;;;;;;;4.18;2.33;;;22.70;96.20;;;;;;5076741;28;20662;-89
2022/06/23 08:18:07;;;;;;;8.43;1.42;;;22.40;93.90;;;;;;5076473;28;20315;-89
2022/06/23 08:20:37;;;;;;;0.93;0.80;;;22.20;93.80;;;;;;5076916;28;20187;-88
2022/06/23 08:23:04;;;;;;;3.63;1.30;;;22.20;92.60;;;;;;5069728;28;20190;-88
2022/06/23 08:25:30;;;;;;;1.60;1.23;;;22.20;93.80;;;;;;5072416;28;20705;-89
2022/06/23 08:27:56;;;;;;;1.05;0.73;;;22.30;93.10;;;;;;5073934;28;20255;-88
2022/06/23 08:30:27;;;;;;;0.95;0.85;;;22.40;93.50;;;;;;5074474;28;20218;-89
2022/06/23 08:32:54;;;;;;;1.33;1.20;;;22.50;93.00;;;;;;5076694;28;20221;-89
2022/06/23 08:35:23;;;;;;;1.08;0.88;;;22.50;91.70;;;;;;5076118;28;20207;-89
2022/06/23 08:38:17;;;;;;;0.73;0.73;;;22.60;92.20;;;;;;5075260;28;20230;-88
2022/06/23 08:40:59;;;;;;;1.40;1.10;;;22.70;92.20;;;;;;5075908;28;20195;-90
2022/06/23 08:43:49;;;;;;;1.23;1.13;;;22.90;91.20;;;;;;5074420;28;20179;-90
2022/06/23 08:46:46;;;;;;;1.20;1.10;;;20.50;89.90;;;;;;5055255;28;20652;-88
2022/06/23 08:49:12;;;;;;;1.10;1.00;;;;;;;;;;5056410;28;20174;-89
2022/06/23 08:51:49;;;;;;;1.33;1.13;;;22.60;91.50;;;;;;5066004;28;20179;-88
2022/06/23 08:54:42;;;;;;;1.20;1.00;;;22.60;91.30;;;;;;5076725;28;20576;-89
2022/06/23 08:57:32;;;;;;;1.20;1.00;;;22.50;90.20;;;;;;5075260;28;20175;-88
2022/06/23 09:00:09;;;;;;;1.30;1.00;;;22.40;90.20;;;;;;5075736;28;20587;-89
2022/06/23 09:02:35;;;;;;;1.33;0.93;;;22.40;90.00;;;;;;5076164;28;20672;-89
2022/06/23 09:05:11;;;;;;;1.02;0.93;;;22.40;91.20;;;;;;5075296;28;20261;-88
2022/06/23 09:08:01;;;;;;;1.17;0.80;;;22.50;90.80;;;;;;5076240;28;20160;-88
2022/06/23 09:11:05;;;;;;;1.00;1.00;;;22.70;91.30;;;;;;5074241;28;20175;-88
2022/06/23 09:13:55;;;;;;;0.88;0.80;;;22.80;90.50;;;;;;5074710;28;20171;-90
2022/06/23 09:16:49;;;;;;;1.45;0.90;;;22.80;90.10;;;;;;5076610;28;20596;-89
2022/06/23 09:19:47;;;;;;;1.60;1.13;;;22.80;90.00;;;;;;5074704;28;20274;-89
2022/06/23 09:22:28;;;;;;;1.17;0.90;;;22.70;87.80;;;;;;5075530;28;20703;-89
2022/06/23 09:25:02;;;;;;;0.73;0.52;;;22.60;86.30;;;;;;5072940;28;20233;-89
2022/06/23 09:27:58;;;;;;;1.10;0.98;;;22.50;89.20;;;;;;5075976;28;20163;-89
2022/06/23 09:30:47;;;;;;;1.15;0.98;;;22.50;90.20;;;;;;5075837;28;20159;-89
2022/06/23 09:33:21;;;;;;;0.80;0.80;;;22.50;88.80;;;;;;5055671;28;20187;-89
2022/06/23 09:36:02;;;;;;;0.98;0.88;;;22.50;88.20;;;;;;5073691;28;20264;-89
2022/06/23 09:38:51;;;;;;;1.52;0.90;;;22.60;89.90;;;;;;5069783;28;20236;-89
2022/06/23 09:42:00;;;;;;;0.88;0.80;;;22.80;90.00;;;;;;5059337;28;20539;-88
2022/06/23 09:44:54;;;;;;;1.60;0.88;;;22.90;87.00;;;;;;5040683;28;20214;-88
2022/06/23 09:47:38;;;;;;;1.05;0.95;;;23.00;88.90;;;;;;5055443;28;20334;-88
2022/06/23 09:50:26;;;;;;;0.80;0.80;;;23.10;86.50;;;;;;5055655;28;20170;-87
2022/06/23 09:53:13;;;;;;;1.25;0.90;;;23.10;85.60;;;;;;5054070;28;20335;-87
2022/06/23 09:55:48;;;;;;;1.23;0.95;;;23.10;85.30;;;;;;5055253;28;20196;-87
2022/06/23 09:58:29;;;;;;;0.95;0.85;;;23.90;87.10;;;;;;5053899;28;20245;-88
2022/06/23 10:01:27;;;;;;;1.15;1.00;;;23.70;86.20;;;;;;5055472;28;20176;-87
2022/06/23 10:04:27;;;;;;;1.20;1.10;;;24.10;82.60;;;;;;5053809;28;20184;-88
2022/06/23 10:07:18;;;;;;;1.50;1.13;;;24.20;81.10;;;;;;5053528;28;20585;-88
2022/06/23 10:09:53;;;;;;;1.10;1.00;;;24.10;83.80;;;;;;5047852;28;20196;-88
2022/06/23 10:12:42;;;;;;;0.75;0.75;;;23.90;81.20;;;;;;5053649;28;20641;-88
2022/06/23 10:15:16;;;;;;;1.70;1.10;;;24.00;81.20;;;;;;5054647;28;20687;-88
2022/06/23 10:18:01;;;;;;;1.95;0.82;;;24.20;81.00;;;;;;5069766;28;20728;-87
2022/06/23 10:20:52;;;;;;;1.00;0.90;;;24.50;79.00;;;;;;5070077;28;20179;-88
2022/06/23 10:23:52;;;;;;;1.23;1.00;;;24.70;78.10;;;;;;5071685;28;20186;-87
2022/06/23 10:26:36;;;;;;;1.27;1.17;;;24.70;78.50;;;;;;5074423;28;20191;-87
2022/06/23 10:29:08;;;;;;;1.10;0.98;;;24.40;77.00;;;;;;5073141;28;20175;-88
2022/06/23 10:31:50;;;;;;;0.93;0.90;;;24.10;78.30;;;;;;5074376;28;20177;-90
2022/06/23 10:34:53;;;;;;;1.00;0.90;;;23.80;80.20;;;;;;5054175;28;20175;-89
2022/06/23 10:37:56;;;;;;;1.10;1.00;;;23.60;78.10;;;;;;5053006;28;20241;-88
2022/06/23 10:40:52;;;;;;;1.83;1.23;;;23.70;78.00;;;;;;5053233;28;20266;-89
2022/06/23 10:43:35;;;;;;;2.05;1.20;;;24.80;78.60;;;;;;5054064;28;20175;-88
2022/06/23 10:46:07;;;;;;;0.90;0.90;;;24.80;78.40;;;;;;5054436;28;20206;-88
2022/06/23 10:48:50;;;;;;;0.88;0.73;;;25.30;75.00;;;;;;5052903;28;20172;-89
2022/06/23 10:51:47;;;;;;;2.13;1.33;;;25.70;73.20;;;;;;5052943;28;20233;-89
2022/06/23 10:54:35;;;;;;;1.33;0.95;;;25.90;72.30;;;;;;5052801;28;20593;-89
2022/06/23 10:57:18;;;;;;;1.05;0.82;;;25.90;72.80;;;;;;5052443;28;20183;-88
2022/06/23 11:00:11;;;;;;;1.02;0.93;;;25.60;73.50;;;;;;5053705;28;20172;-88
2022/06/23 11:02:57;;;;;;;2.17;1.33;;;24.90;71.20;;;;;;5053706;28;20176;-88
2022/06/23 11:05:58;;;;;;;1.30;0.85;;;24.30;73.40;;;;;;5067753;28;20175;-88
2022/06/23 11:08:56;;;;;;;1.30;1.13;;;24.00;73.80;;;;;;5072363;28;20270;-88
2022/06/23 11:11:27;;;;;;;1.92;1.20;;;24.70;74.80;;;;;;5071461;28;20179;-88
2022/06/23 11:14:16;;;;;;;2.25;0.90;;;24.40;76.10;;;;;;5071930;28;20171;-88
2022/06/23 11:16:42;;;;;;;1.48;0.85;;;24.90;72.60;;;;;;5070970;28;20199;-88
2022/06/23 11:19:33;;;;;;;0.98;0.75;;;25.30;72.60;;;;;;5071945;28;20179;-88
2022/06/23 11:22:11;;;;;;;0.65;0.65;;;25.70;69.20;;;;;;5072445;28;20210;-88
2022/06/23 11:24:51;;;;;;;0.98;0.98;;;26.00;69.60;;;;;;5073722;28;20647;-88
2022/06/23 11:27:20;;;;;;;1.27;1.10;;;25.90;68.20;;;;;;5073602;28;20183;-87
2022/06/23 11:30:22;;;;;;;1.00;0.90;;;25.70;68.50;;;;;;5073154;28;20182;-88
2022/06/23 11:32:50;;;;;;;0.82;0.80;;;25.00;69.20;;;;;;5071817;28;20666;-88
2022/06/23 11:35:37;;;;;;;2.85;1.50;;;24.40;69.70;;;;;;5073840;28;20316;-88
2022/06/23 11:38:29;;;;;;;1.00;0.90;;;24.10;71.60;;;;;;5072254;28;20232;-88
2022/06/23 11:41:00;;;;;;;1.25;1.02;;;23.90;71.00;;;;;;5072876;28;20167;-87
2022/06/23 11:43:26;;;;;;;1.15;0.80;;;;;;;;;;5072072;28;20628;-88
2022/06/23 11:46:06;;;;;;;1.02;0.93;;;24.50;72.20;;;;;;5073346;28;20183;-88
2022/06/23 11:48:34;;;;;;;1.38;1.10;;;24.70;71.40;;;;;;5074988;28;20159;-87
2022/06/23 11:51:06;;;;;;;1.20;1.02;;;24.90;71.10;;;;;;5074198;28;20171;-86
2022/06/23 11:54:12;;;;;;;0.63;0.63;;;25.20;70.60;;;;;;5074001;28;20171;-88
2022/06/23 11:57:00;;;;;;;1.30;0.82;;;25.20;70.30;;;;;;5072397;28;20689;-86
2022/06/23 11:59:45;;;;;;;0.90;0.88;;;25.50;68.10;;;;;;5071990;28;20179;-86
2022/06/23 12:02:10;;;;;;;1.60;0.93;;;25.70;68.30;;;;;;5071147;28;20181;-86
2022/06/23 12:04:43;;;;;;;1.33;1.15;;;25.60;66.10;;;;;;5071745;28;20356;-86
2022/06/23 12:07:44;;;;;;;0.73;0.73;;;25.50;64.10;;;;;;5071396;28;20225;-86
2022/06/23 12:10:28;;;;;;;1.13;0.90;;;25.60;66.00;;;;;;5069245;28;20639;-86
2022/06/23 12:12:57;;;;;;;1.48;1.00;;;25.60;64.10;;;;;;5075964;28;20188;-84
2022/06/23 12:15:30;;;;;;;1.50;1.10;;;25.50;64.10;;;;;;5087408;28;20664;-86
2022/06/23 12:18:12;;;;;;;1.02;0.82;;;25.50;63.60;;;;;;5087197;28;20223;-85
2022/06/23 12:20:46;;;;;;;1.48;1.10;;;25.40;65.00;;;;;;5089415;28;20175;-85
2022/06/23 12:23:35;;;;;;;1.30;1.10;;;25.00;64.20;;;;;;5080495;28;20708;-85
2022/06/23 12:26:16;;;;;;;2.80;2.13;;;24.60;64.40;;;;;;5072128;28;20193;-87
2022/06/23 12:28:54;;;;;;;0.75;0.75;;;24.50;66.30;;;;;;5073104;28;20639;-86
2022/06/23 12:31:34;;;;;;;4.50;1.90;;;24.80;66.30;;;;;;5071776;28;20218;-87
2022/06/23 12:34:09;;;;;;;1.80;1.17;;;25.00;67.40;;;;;;5071705;28;20179;-87
2022/06/23 12:36:41;;;;;;;1.02;0.95;;;25.20;63.80;;;;;;5073143;28;20198;-86
2022/06/23 12:39:14;;;;;;;0.63;0.63;;;25.40;62.00;;;;;;5071399;28;20195;-86
2022/06/23 12:41:54;;;;;;;1.88;1.20;;;25.40;64.40;;;;;;5071516;28;20181;-87
2022/06/23 12:44:42;;;;;;;0.82;0.80;;;25.40;64.00;;;;;;5072567;28;20207;-87
2022/06/23 12:47:40;;;;;;;0.82;0.80;;;25.10;64.20;;;;;;5076422;28;20167;-87
2022/06/23 12:50:48;;;;;;;0.73;0.60;;;24.80;63.10;;;;;;5075025;28;20175;-86
2022/06/23 12:53:45;;;;;;;0.80;0.80;;;24.60;68.30;;;;;;5074742;28;20187;-86
2022/06/23 12:56:35;;;;;;;1.40;0.85;;;24.50;64.90;;;;;;5055721;28;20668;-86
2022/06/23 12:59:25;;;;;;;0.80;0.80;;;24.50;64.70;;;;;;5056096;28;20247;-86
2022/06/23 13:01:52;;;;;;;0.65;0.65;;;24.40;65.50;;;;;;5055044;28;20176;-87
2022/06/23 13:04:21;;;;;;;0.60;0.60;;;24.30;63.30;;;;;;5071305;28;20651;-88
2022/06/23 13:06:55;;;;;;;2.00;1.30;;;24.60;63.60;;;;;;5074486;28;20203;-87
2022/06/23 13:09:42;;;;;;;1.08;0.95;;;25.40;66.00;;;;;;5074512;28;20166;-87
2022/06/23 13:12:08;;;;;;;1.98;1.42;;;24.90;64.40;;;;;;5074415;28;20191;-88
2022/06/23 13:14:44;;;;;;;1.48;1.00;;;24.80;66.60;;;;;;5075754;28;20175;-86
2022/06/23 13:17:21;;;;;;;1.20;1.10;;;24.60;67.80;;;;;;5075254;28;20687;-86
2022/06/23 13:19:56;;;;;;;2.97;1.63;;;24.50;68.60;;;;;;5072942;28;20182;-87
2022/06/23 13:22:22;;;;;;;2.42;1.92;;;24.40;68.80;;;;;;5075455;28;20166;-86
2022/06/23 13:24:53;;;;;;;1.42;1.13;;;24.30;68.90;;;;;;5075019;28;20183;-86
2022/06/23 13:27:22;;;;;;;1.23;0.93;;;24.20;68.30;;;;;;5075440;28;20179;-86
2022/06/23 13:29:52;;;;;;;1.52;0.90;;;24.20;67.00;;;;;;5074452;28;20179;-87
2022/06/23 13:32:39;;;;;;;1.02;0.93;;;24.30;66.50;;;;;;5074190;28;20187;-84
2022/06/23 13:35:27;;;;;;;1.27;0.90;;;24.60;66.30;;;;;;5074480;28;20207;-86
2022/06/23 13:38:03;;;;;;;1.40;1.20;;;24.90;68.00;;;;;;5074210;28;20179;-85
2022/06/23 13:40:35;;;;;;;1.98;1.20;;;25.20;65.50;;;;;;5075550;28;20247;-85
2022/06/23 13:43:12;;;;;;;1.83;1.15;;;25.40;65.80;;;;;;5074088;28;20202;-85
2022/06/23 13:45:57;;;;;;;1.13;0.98;;;25.60;65.10;;;;;;5070816;28;20175;-86
2022/06/23 13:49:03;;;;;;;0.75;0.75;;;25.60;64.40;;;;;;5072378;28;20648;-85
2022/06/23 13:51:44;;;;;;;1.45;1.02;;;25.30;64.40;;;;;;4997546;28;20680;-86
2022/06/23 13:54:26;;;;;;;2.72;1.23;;;25.20;64.30;;;;;;5064988;28;20187;-86
2022/06/23 13:56:56;;;;;;;1.17;1.00;;;25.30;63.70;;;;;;5073298;28;20636;-86
2022/06/23 13:59:34;;;;;;;2.38;1.42;;;25.30;64.40;;;;;;5054599;28;20577;-85
2022/06/23 14:02:33;;;;;;;0.98;0.88;;;26.70;64.80;;;;;;5054488;28;20171;-87
2022/06/23 14:05:31;;;;;;;1.27;1.00;;;25.10;64.80;;;;;;5072173;28;20203;-86